Aérodrome :
LOGIN :

S'inscrire | Disclaimer

   EN    FR    IT 

 










Légende :    VFR   VFR Marginal   IFR   IFR Intensif   IFR Très Intensif
Visi : 
Plafond : 
>= 8 km
>= 3000ft
5 à 8 km
1000 à 3000 ft
1500m à 5 km
500 à 1000 ft
800 à 1500m
200 à 500 ft
< 800m
< 200 ft
Symboles :   Orages  Brouillard  Fortes neiges  Fortes précipitations  Vent > 20 kt
SIGMETs :   Divers  Orages  Givrage  Turbulence  Onde Orograph.  Cendres Volcan.







- Altitude de l'aérodrome : 1504 ft
- Code IATA : PNA


LEPP - Noain Pamplona

DERNIER METAR :
  • 210200Z AUTO 03004KT 340V070 9999 -RA FEW015 SCT026 BKN032 17/15 Q1015 RERA

METARs EXPIRÉS :
  • 210130Z AUTO 26005KT 9000 RA VV008 17/14 Q1015
  • 210100Z AUTO 13003KT 9999 FEW032 BKN039 18/14 Q1015 RERA
  • 210030Z AUTO 08004KT 9999 RA FEW018 SCT036 18/14 Q1015
  • 210000Z AUTO 13009KT 070V170 CAVOK 18/14 Q1015
  • 202330Z AUTO 13009KT 100V170 CAVOK 19/15 Q1015

TAF TAF LEPP
Valide du 20 à 21h jusqu'au 21 à 21h UTC


202000Z 2021/2121 15009KT 9999 SCT035 TX26/2115Z TN16/2105Z
TEMPO 2021/2121 17015G25KT
TEMPO 2021/2115 SCT030TCU
TEMPO 2021/2105 SHRA BKN025TCU
TEMPO 2021/2103 20018G30KT 3000 TSRA BKN010 BKN025CB
PROB40
TEMPO 2021/2103 VRB22G35KT 1500 +SHRA TSGR BKN005 BKN020CB
Pas de NOTAMs connus pour ce terrain.



MET'MAP, la Météo Aéronautique d'un coup d'oeil ! - Copyright ORBIFLY Décembre 2007 - Disclaimer

ORBIFLY MET'MAP TEAM :

Programmation & Développement : Alexandra Zaïnal
Conception & Développement : Baudouin d'Aumeries
Co-Programmation & Développement : Marc-Olivier Méhu
Soutien technique & logistique : Manuel Goepfert

Contact : metmap@orbifly.com




SOURCES & CREDITS :

   NOAA